Latest Weather Observations for Canberra

IDN60901

Issued at 4:32 pm EDT Monday 22 December 2014 (issued every 10 minutes, with the page automatically refreshed every 10 minutes)

About weather observations | Map of Canberra area stations | Latest observations for Canberra area | Other Formats
Station Details ID: 070351 Name: CANBERRA AIRPORT Lat: -35.31 Lon: 149.20 Height: 577.05 m
Data from the previous 72 hours. | See also: Recent months at Canberra
Date/Time
EDT
Tmp

°C
App
Tmp
°C
Dew
Point
°C
Rel
Hum
%
Delta-T

°C
Wind Press
QNH
hPa
Press
MSL
hPa
Rain
since
9 am
mm
Dir
 
Spd
km/h
Gust
km/h
Spd
kts
Gust
kts
22/04:00pm 23.2 22.3 15.8 63 4.6 ENE 15 19 8 10 1015.3 - 0.4
22/03:30pm 21.7 19.8 15.3 67 3.9 NNW 19 43 10 23 1015.2 - 0.2
22/03:22pm 24.9 19.3 10.0 39 8.4 NNW 30 43 16 23 1015.1 - 0.2
22/03:00pm 23.7 16.9 13.0 51 6.3 WNW 41 61 22 33 1014.7 1012.7 0.0
22/02:52pm 23.8 17.4 13.1 51 6.3 WNW 39 61 21 33 1014.2 - 0.0
22/02:45pm 25.0 18.2 10.8 41 8.2 NNW 37 48 20 26 1014.6 - 0.0
22/02:41pm 28.6 24.4 11.2 34 10.2 NNE 24 33 13 18 1013.8 - 0.0
22/02:30pm 29.4 25.3 11.5 33 10.6 NE 24 37 13 20 1013.5 - 0.0
22/02:00pm 29.5 27.8 12.4 35 10.3 NNE 13 22 7 12 1013.9 - 0.0
22/01:30pm 29.2 27.9 12.6 36 10.0 NE 11 20 6 11 1014.7 - 0.0
22/01:00pm 29.0 28.2 12.8 36 9.8 W 9 15 5 8 1015.4 - 0.0
22/12:30pm 29.8 29.4 14.0 38 9.7 NW 9 17 5 9 1016.2 - 0.0
22/12:00pm 29.8 29.4 15.1 40 9.2 W 11 28 6 15 1016.7 1014.7 0.0
22/11:30am 27.9 28.3 15.2 46 7.9 S 7 13 4 7 1016.9 - 0.0
22/11:00am 27.3 26.0 14.7 46 7.8 W 15 28 8 15 1017.1 - 0.0
22/10:30am 26.1 25.9 14.6 49 7.1 W 9 13 5 7 1017.4 - 0.0
22/10:00am 25.0 26.1 15.6 56 5.8 W 4 9 2 5 1017.5 - 0.0
22/09:30am 23.7 24.4 16.0 62 4.8 NW 7 11 4 6 1017.7 - 0.0
22/09:00am 22.4 23.6 16.0 67 4.0 NE 4 9 2 5 1017.8 1015.8 0.0
22/08:30am 20.8 21.4 15.4 71 3.3 SSE 6 9 3 5 1017.6 - 0.0
22/08:00am 19.3 20.3 15.4 78 2.4 S 4 7 2 4 1017.4 - 0.0
22/07:30am 18.8 19.4 15.7 82 1.9 SE 7 9 4 5 1017.0 - 0.0
22/07:00am 18.4 18.7 16.0 86 1.5 SE 9 13 5 7 1016.8 - 0.0
22/06:30am 16.4 17.0 15.3 93 0.7 S 6 9 3 5 1016.7 - 0.0
22/06:00am 14.8 16.0 13.8 94 0.6 CALM 0 0 0 0 1016.6 1014.6 0.0
22/05:30am 14.8 14.7 13.8 94 0.6 NNW 7 9 4 5 1016.3 - 0.0
22/05:00am 15.4 15.4 14.1 92 0.8 E 7 9 4 5 1016.1 - 0.0
22/04:30am 14.9 15.8 12.9 88 1.1 CALM 0 0 0 0 1015.9 - 0.0
22/04:00am 16.4 16.2 14.6 89 1.1 N 9 11 5 6 1015.9 - 0.0
22/03:30am 16.7 17.2 14.9 89 1.1 E 6 7 3 4 1015.9 - 0.0
22/03:00am 16.9 17.2 14.9 88 1.2 SE 7 9 4 5 1016.2 1014.1 0.0
22/02:30am 17.1 16.5 14.7 86 1.4 E 11 13 6 7 1016.3 - 0.0
22/02:00am 17.7 18.0 15.0 84 1.6 SE 7 9 4 5 1016.6 - 0.0
22/01:30am 18.7 18.8 15.4 81 2.0 ESE 9 11 5 6 1016.5 - 0.0
22/01:00am 19.2 19.7 15.5 79 2.2 SE 7 11 4 6 1016.7 - 0.0
22/12:30am 20.1 20.6 15.5 75 2.8 SE 7 13 4 7 1016.7 - 0.0
22/12:00am 20.2 20.6 15.2 73 3.0 SE 7 11 4 6 1016.7 1014.7 0.0
 
Date/Time
EDT
Tmp

°C
App
Tmp
°C
Dew
Point
°C
Rel
Hum
%
Delta-T

°C
Wind Press
QNH
hPa
Press
MSL
hPa
Rain
since
9 am
mm
Dir
 
Spd
km/h
Gust
km/h
Spd
kts
Gust
kts
21/11:30pm 21.1 21.8 15.6 71 3.4 SSE 6 9 3 5 1016.6 - 0.0
21/11:00pm 21.5 21.3 15.8 70 3.5 E 11 13 6 7 1016.4 - 0.0
21/10:30pm 22.3 20.3 15.6 66 4.1 ENE 20 30 11 16 1016.3 - 0.0
21/10:00pm 22.0 19.4 14.9 64 4.3 E 22 30 12 16 1016.1 - 0.0
21/09:30pm 18.7 16.1 7.8 49 5.7 E 11 11 6 6 1015.8 - 0.0
21/09:00pm 20.3 18.1 7.7 44 6.7 ENE 9 11 5 6 1015.6 1013.5 0.0
21/08:30pm 23.9 21.5 7.1 34 9.0 WNW 9 9 5 5 1015.3 - 0.0
21/08:00pm 25.8 22.4 5.9 28 10.5 W 13 17 7 9 1015.2 - 0.0
21/07:30pm 27.3 23.8 7.2 28 11.0 W 15 19 8 10 1014.9 - 0.0
21/07:00pm 28.6 24.6 6.7 25 11.9 WSW 17 24 9 13 1014.6 - 0.0
21/06:30pm 29.3 26.8 6.7 24 12.4 WNW 9 17 5 9 1014.5 - 0.0
21/06:00pm 29.4 25.8 6.7 24 12.4 WNW 15 17 8 9 1014.4 1012.3 0.0
21/05:30pm 29.4 25.2 7.3 25 12.2 W 19 32 10 17 1014.4 - 0.0
21/05:00pm 28.0 24.9 7.3 27 11.4 WNW 13 24 7 13 1014.6 - 0.0
21/04:30pm 29.2 25.8 7.7 26 12.0 WNW 15 22 8 12 1014.8 - 0.0
21/04:00pm 29.2 25.4 7.7 26 12.0 WNW 17 28 9 15 1015.1 - 0.0
21/03:30pm 29.6 25.9 8.1 26 12.1 W 17 24 9 13 1015.1 - 0.0
21/03:00pm 28.2 25.4 8.5 29 11.0 N 13 19 7 10 1015.7 1013.6 0.0
21/02:30pm 28.8 26.9 10.5 32 10.6 WNW 11 19 6 10 1015.9 - 0.0
21/02:00pm 28.7 24.3 8.9 29 11.2 NW 22 30 12 16 1016.2 - 0.0
21/01:30pm 26.6 22.7 8.6 32 10.0 NNW 19 39 10 21 1016.7 - 0.0
21/01:00pm 27.1 23.5 8.5 31 10.4 NNW 17 28 9 15 1016.9 - 0.0
21/12:30pm 27.6 24.4 9.9 33 10.1 WNW 17 30 9 16 1017.5 - 0.0
21/12:00pm 25.6 22.7 11.0 40 8.4 NNW 17 20 9 11 1018.0 1016.0 0.0
21/11:30am 24.2 23.1 11.9 46 7.2 NNW 9 17 5 9 1018.3 - 0.0
21/11:00am 23.0 22.1 12.6 52 6.1 WNW 9 17 5 9 1018.8 - 0.0
21/10:30am 22.3 21.4 12.5 53 5.7 WNW 9 13 5 7 1018.6 - 0.0
21/10:00am 21.0 20.0 12.2 57 5.1 WNW 9 15 5 8 1018.7 - 0.0
21/09:30am 19.7 18.5 11.7 60 4.5 WSW 9 13 5 7 1018.6 - 0.0
21/09:00am 18.8 18.2 12.3 66 3.7 W 7 11 4 6 1019.0 1017.0 0.0
21/08:30am 17.5 16.8 11.5 68 3.4 S 6 11 3 6 1018.9 - 0.0
21/08:00am 17.3 16.7 11.6 69 3.2 SE 6 13 3 7 1018.9 - 0.0
21/07:30am 16.3 15.1 11.5 73 2.7 SE 9 13 5 7 1018.8 - 0.0
21/07:00am 15.6 15.1 12.2 80 1.9 ESE 6 7 3 4 1018.7 - 0.0
21/06:30am 13.2 12.2 10.9 86 1.2 E 7 9 4 5 1018.6 - 0.0
21/06:00am 13.2 13.4 10.4 83 1.5 CALM 0 0 0 0 1018.5 1016.5 0.0
21/05:56am 13.6 13.8 10.6 82 1.6 CALM 0 0 0 0 1018.5 - 0.0
21/05:30am 14.4 13.1 11.2 81 1.8 E 9 13 5 7 1018.3 - 0.0
21/05:00am 14.9 13.7 11.5 80 1.9 ESE 9 13 5 7 1018.2 - 0.0
21/04:30am 15.1 13.9 11.7 80 1.9 ESE 9 13 5 7 1018.2 - 0.0
21/04:00am 15.1 13.5 11.7 80 1.9 ESE 11 13 6 7 1018.2 - 0.0
21/03:30am 15.1 13.9 11.7 80 1.9 SE 9 11 5 6 1018.3 - 0.0
21/03:00am 15.2 14.1 11.8 80 1.9 ESE 9 11 5 6 1018.4 1016.4 0.0
21/02:30am 15.2 14.1 11.8 80 1.9 E 9 13 5 7 1018.6 - 0.0
21/02:00am 15.3 13.8 11.9 80 1.9 E 11 13 6 7 1018.8 - 0.0
21/01:30am 15.4 13.9 11.8 79 2.0 E 11 17 6 9 1018.8 - 0.0
21/01:00am 15.4 14.0 12.2 81 1.8 E 11 17 6 9 1019.0 - 0.0
21/12:30am 15.2 12.6 12.1 82 1.7 E 17 22 9 12 1019.3 - 0.0
21/12:19am 14.9 13.1 12.0 83 1.6 ENE 13 15 7 8 1019.1 - 0.0
21/12:00am 14.6 13.8 11.6 82 1.7 ENE 7 11 4 6 1019.4 1017.4 0.0
 
Date/Time
EDT
Tmp

°C
App
Tmp
°C
Dew
Point
°C
Rel
Hum
%
Delta-T

°C
Wind Press
QNH
hPa
Press
MSL
hPa
Rain
since
9 am
mm
Dir
 
Spd
km/h
Gust
km/h
Spd
kts
Gust
kts
20/11:30pm 14.9 13.3 11.7 81 1.8 ESE 11 15 6 8 1019.1 - 0.0
20/11:00pm 15.9 14.8 12.1 78 2.1 E 9 11 5 6 1019.1 - 0.0
20/10:30pm 16.4 14.2 12.2 76 2.4 E 15 19 8 10 1018.9 - 0.0
20/10:00pm 17.0 16.0 12.3 74 2.7 ESE 9 13 5 7 1018.5 - 0.0
20/09:30pm 17.2 16.1 12.1 72 2.9 ENE 9 19 5 10 1017.8 - 0.0
20/09:00pm 18.1 17.2 12.5 70 3.2 NE 9 15 5 8 1017.4 1015.3 0.0
20/08:30pm 18.9 17.2 12.6 67 3.6 ESE 13 20 7 11 1016.9 - 0.0
20/08:00pm 19.6 15.1 12.6 64 4.0 E 28 39 15 21 1016.3 - 0.0
20/07:30pm 20.9 15.7 12.8 60 4.7 E 32 41 17 22 1015.8 - 0.0
20/07:00pm 22.8 18.3 12.7 53 5.9 E 28 37 15 20 1015.2 - 0.0
20/06:45pm 24.1 19.2 11.4 45 7.3 ESE 28 35 15 19 1014.8 - 0.0
20/06:30pm 25.7 22.7 7.8 32 9.8 W 13 15 7 8 1014.6 - 0.0
20/06:00pm 26.9 25.2 9.7 34 9.8 WSW 9 19 5 10 1014.4 1012.3 0.0
20/05:30pm 26.2 23.9 7.3 30 10.3 ENE 9 17 5 9 1014.4 - 0.0
20/05:00pm 26.4 24.0 8.8 33 9.8 SW 11 15 6 8 1014.4 - 0.0
20/04:30pm 25.3 23.4 7.4 32 9.7 WNW 7 15 4 8 1014.5 - 0.0
20/04:00pm 25.7 23.5 7.8 32 9.8 NNW 9 19 5 10 1014.9 - 0.0
20/03:30pm 25.3 23.2 8.3 34 9.4 ENE 9 19 5 10 1015.2 - 0.0
20/03:00pm 25.2 23.3 9.1 36 9.0 NW 9 15 5 8 1015.6 1013.5 0.0
20/02:30pm 24.8 22.5 9.1 37 8.7 W 11 26 6 14 1015.9 - 0.0
20/02:00pm 24.3 22.0 9.1 38 8.4 WSW 11 20 6 11 1016.1 - 0.0
20/01:30pm 24.5 22.2 10.4 41 8.0 SW 13 19 7 10 1016.4 - 0.0
20/01:00pm 23.8 22.1 11.2 45 7.2 S 11 22 6 12 1016.9 - 0.0
20/12:30pm 21.6 20.0 8.8 44 7.0 NNE 7 17 4 9 1017.5 - 0.0
20/12:00pm 21.4 19.0 9.9 48 6.4 WNW 13 19 7 10 1017.7 1015.6 0.0
20/11:30am 19.5 17.4 8.2 48 6.0 NNW 9 15 5 8 1018.0 - 0.0
20/11:00am 18.7 17.0 10.0 57 4.8 NNE 9 13 5 7 1018.2 - 0.0
20/10:30am 17.7 16.2 9.3 58 4.5 SSE 7 11 4 6 1018.4 - 0.0
20/10:00am 16.7 14.8 8.9 60 4.1 N 9 17 5 9 1018.6 - 0.0
20/09:30am 16.1 14.3 9.3 64 3.6 N 9 13 5 7 1018.9 - 0.0
20/09:22am 15.6 13.5 8.4 62 3.8 N 9 13 5 7 1018.9 - 0.0
20/09:00am 14.6 12.7 9.0 69 2.9 N 9 13 5 7 1018.9 1016.9 0.0
20/08:30am 14.3 12.7 8.7 69 2.9 E 7 13 4 7 1018.9 - 0.0
20/08:00am 13.7 12.2 9.0 73 2.5 ESE 7 13 4 7 1018.7 - 0.0
20/07:30am 13.6 11.8 9.3 75 2.3 SE 9 15 5 8 1018.5 - 0.0
20/07:00am 12.4 11.3 9.8 84 1.4 SE 6 7 3 4 1018.3 - 0.0
20/06:30am 11.5 9.6 9.2 86 1.2 ESE 9 11 5 6 1018.1 - 0.0
20/06:00am 10.9 9.2 8.5 85 1.2 E 7 7 4 4 1018.0 1016.0 0.0
20/05:53am 10.9 9.1 8.1 83 1.4 ESE 7 9 4 5 1018.0 - 0.0
20/05:33am 11.7 10.2 8.6 81 1.6 E 6 7 3 4 1017.8 - 0.0
20/05:30am 11.7 10.2 8.4 80 1.7 E 6 7 3 4 1017.8 - 0.0
20/05:00am 12.1 10.5 8.6 79 1.8 E 7 7 4 4 1017.7 - 0.0
20/04:30am 12.8 11.4 8.9 77 2.0 ENE 6 9 3 5 1017.5 - 0.0
20/04:23am 12.9 11.5 8.8 76 2.1 E 6 7 3 4 1017.5 - 0.0
20/04:00am 13.0 11.5 9.1 77 2.0 E 7 11 4 6 1017.7 - 0.0
20/03:30am 13.0 11.1 8.9 76 2.1 E 9 11 5 6 1017.7 - 0.0
20/03:00am 13.1 10.4 8.8 75 2.2 ENE 13 17 7 9 1017.9 1015.9 0.0
20/02:42am 13.1 11.2 9.0 76 2.1 E 9 13 5 7 1017.9 - 0.0
20/02:30am 13.1 11.2 9.0 76 2.1 E 9 11 5 6 1017.9 - 0.0
20/02:00am 13.0 11.4 8.9 76 2.1 SE 7 9 4 5 1018.2 - 0.0
20/01:30am 13.0 11.5 9.1 77 2.0 E 7 11 4 6 1018.4 - 0.0
20/01:00am 12.9 12.0 9.2 78 1.9 SSE 4 15 2 8 1018.6 - 0.0
20/12:30am 12.6 11.3 9.1 79 1.8 NE 6 9 3 5 1018.7 - 0.0
20/12:17am 12.3 10.9 9.0 80 1.7 ESE 6 9 3 5 1018.7 - 0.0
20/12:00am 12.0 10.5 8.5 79 1.8 E 6 9 3 5 1018.8 1016.8 0.0
 
Date/Time
EDT
Tmp

°C
App
Tmp
°C
Dew
Point
°C
Rel
Hum
%
Delta-T

°C
Wind Press
QNH
hPa
Press
MSL
hPa
Rain
since
9 am
mm
Dir
 
Spd
km/h
Gust
km/h
Spd
kts
Gust
kts
19/11:30pm 12.3 10.3 8.6 78 1.9 E 9 11 5 6 1018.8 - 0.0
19/11:00pm 12.6 9.1 8.7 77 2.0 E 17 26 9 14 1018.8 - 0.0
19/10:30pm 12.7 9.5 8.6 76 2.1 E 15 28 8 15 1018.7 - 0.0
19/10:00pm 13.1 9.6 8.8 75 2.2 E 17 24 9 13 1018.3 - 0.0
19/09:30pm 13.3 9.4 8.8 74 2.3 E 19 28 10 15 1017.7 - 0.0
19/09:00pm 13.8 8.5 8.6 71 2.7 E 26 37 14 20 1017.2 - 0.0
19/08:30pm 14.5 9.3 8.7 68 3.0 E 26 35 14 19 1016.7 - 0.0
19/08:09pm 15.2 9.6 8.7 65 3.4 E 28 46 15 25 1016.2 - 0.0
19/08:00pm 15.6 9.2 8.6 63 3.7 E 32 46 17 25 1016.0 - 0.0
19/07:30pm 16.8 10.8 8.8 59 4.2 E 30 39 16 21 1015.0 - 0.0
19/07:00pm 18.6 10.6 9.1 54 5.1 E 41 50 22 27 1013.9 - 0.0
19/06:51pm 19.7 12.1 9.0 50 5.8 E 39 50 21 27 1013.3 - 0.0
19/06:30pm 24.6 20.1 4.4 27 10.3 W 17 28 9 15 1013.0 - 0.0
19/06:00pm 24.2 19.4 4.6 28 10.1 W 19 28 10 15 1012.3 1010.2 0.0
19/05:30pm 24.2 19.5 5.1 29 9.9 W 19 28 10 15 1012.0 - 0.0
19/05:00pm 24.6 19.0 5.4 29 10.0 W 24 32 13 17 1011.9 - 0.0
19/04:36pm 24.0 17.4 4.4 28 10.0 WNW 28 52 15 28 1011.7 - 0.0

Latest Capital City Observations: Canberra | Sydney | Melbourne | Brisbane | Adelaide | Perth | Hobart | Darwin

Other Formats:

Comma delimited format used in spreadsheet applications
http://www.bom.gov.au/fwo/IDN60903/IDN60903.94926.axf

JavaScript Object Notation format (JSON) in row-major order
http://www.bom.gov.au/fwo/IDN60903/IDN60903.94926.json